Time;durP1;ratioP1;P1;durP2;ratioP2;P2;SDS_P1;SDS_P2;PMS_P1;PMS_P2;Temp;Humidity;BMP_temperature;BMP_pressure;BME280_temperature;BME280_humidity;BME280_pressure;Samples;Min_cycle;Max_cycle;Signal;HPM_P1;HPM_P2
2022/08/20 00:00:52;;;;;;;14.70;9.70;;;;;;;17.01;97.29;94406.63;1684084;84;20988;-48
2022/08/20 00:03:32;;;;;;;15.38;9.48;;;;;;;16.95;97.56;94406.45;1680181;84;20973;-49
2022/08/20 00:06:10;;;;;;;15.23;10.58;;;;;;;16.90;97.84;94405.16;1678555;83;21230;-48
2022/08/20 00:08:37;;;;;;;20.68;10.13;;;;;;;16.88;98.12;94395.81;1657897;84;21743;-48
2022/08/20 00:11:06;;;;;;;14.95;10.53;;;;;;;16.84;98.17;94395.27;1679396;84;21084;-48
2022/08/20 00:13:39;;;;;;;17.45;10.28;;;;;;;16.80;98.34;94403.07;1676563;84;21088;-47
2022/08/20 00:16:07;;;;;;;14.70;9.40;;;;;;;16.74;98.65;94398.12;1648803;83;21403;-49
2022/08/20 00:18:36;;;;;;;14.10;9.33;;;;;;;16.75;99.11;94394.08;1680432;83;21284;-47
2022/08/20 00:21:07;;;;;;;13.50;9.60;;;;;;;16.73;98.88;94391.78;1680327;82;21051;-47
2022/08/20 00:23:40;;;;;;;12.33;9.53;;;;;;;16.70;98.72;94397.59;1636747;85;21121;-47
2022/08/20 00:26:09;;;;;;;15.03;10.00;;;;;;;16.61;98.48;94392.98;1673288;84;21040;-48
2022/08/20 00:28:37;;;;;;;10.75;8.73;;;;;;;16.55;98.89;94391.42;1679943;83;20972;-48
2022/08/20 00:31:06;;;;;;;15.60;8.63;;;;;;;16.53;99.19;94398.09;1682746;83;21179;-48
2022/08/20 00:33:34;;;;;;;12.45;9.35;;;;;;;16.49;99.27;94393.37;1682782;84;21059;-47
2022/08/20 00:36:05;;;;;;;16.32;10.08;;;;;;;16.48;99.43;94391.23;1673477;84;21710;-48
2022/08/20 00:38:34;;;;;;;13.00;9.53;;;;;;;16.47;99.64;94383.39;1678338;83;21622;-48
2022/08/20 00:41:03;;;;;;;12.90;9.15;;;;;;;16.48;99.58;94382.91;1645871;84;21058;-49
2022/08/20 00:43:50;;;;;;;17.15;9.68;;;;;;;16.52;99.35;94378.52;1656653;84;21865;-48
2022/08/20 00:46:26;;;;;;;19.70;9.88;;;;;;;16.57;99.28;94373.63;1668197;84;21024;-48
2022/08/20 00:48:54;;;;;;;12.63;9.98;;;;;;;16.64;99.13;94371.77;1658502;85;21013;-47
2022/08/20 00:51:40;;;;;;;17.37;10.05;;;;;;;16.66;98.25;94376.20;1647752;86;21118;-48
2022/08/20 00:54:25;;;;;;;12.53;9.00;;;;;;;16.63;97.56;94377.19;1620885;86;21023;-47
2022/08/20 00:57:03;;;;;;;13.78;10.00;;;;;;;16.57;97.26;94367.43;1640813;84;21191;-47
2022/08/20 00:59:35;;;;;;;14.90;9.75;;;;;;;16.55;97.22;94363.64;1658615;85;21174;-48
2022/08/20 01:02:07;;;;;;;15.40;9.60;;;;;;;16.57;97.66;94363.91;1647620;86;21042;-48
2022/08/20 01:04:35;;;;;;;19.10;12.18;;;;;;;16.60;97.71;94357.36;1663000;85;21045;-48
2022/08/20 01:07:04;;;;;;;14.73;10.23;;;;;;;16.64;97.82;94363.44;1632483;83;21212;-48
2022/08/20 01:09:33;;;;;;;17.45;10.48;;;;;;;16.66;98.01;94364.47;1659919;85;21286;-48
2022/08/20 01:12:02;;;;;;;15.98;11.05;;;;;;;16.67;98.38;94363.22;1645091;85;21166;-48
2022/08/20 01:17:04;;;;;;;20.17;10.68;;;;;;;16.75;98.42;94362.13;1679828;83;20972;-47
2022/08/20 01:19:39;;;;;;;12.37;10.05;;;;;;;16.78;98.04;94356.97;1642707;85;21606;-47
2022/08/20 01:24:38;;;;;;;20.30;11.00;;;;;;;16.82;97.31;94358.88;1626548;85;21021;-49
2022/08/20 01:27:05;;;;;;;18.40;11.05;;;;;;;16.81;97.20;94358.75;1635759;85;20995;-48
2022/08/20 01:29:38;;;;;;;21.12;12.60;;;;;;;16.83;97.68;94354.23;1596486;87;21015;-48
2022/08/20 01:32:06;;;;;;;20.72;12.95;;;;;;;16.88;97.90;94347.19;1656180;84;22248;-48
2022/08/20 01:34:34;;;;;;;18.73;12.90;;;;;;;16.90;97.79;94340.50;1648865;84;21210;-48
2022/08/20 01:37:02;;;;;;;16.67;11.73;;;;;;;16.92;97.80;94340.77;1630878;85;21685;-48
2022/08/20 01:39:32;;;;;;;20.50;12.07;;;;;;;16.92;97.41;94344.28;1647017;86;21169;-48
2022/08/20 01:42:08;;;;;;;21.75;12.20;;;;;;;16.86;97.77;94339.95;1648411;86;20986;-49
2022/08/20 01:44:37;;;;;;;26.93;13.83;;;;;;;16.86;98.50;94346.90;1632412;87;21700;-47
2022/08/20 01:47:16;;;;;;;15.93;11.18;;;;;;;16.83;98.34;94343.73;1664891;85;21870;-47
2022/08/20 01:49:54;;;;;;;13.05;10.70;;;;;;;16.80;98.18;94336.39;1666946;85;20973;-48
2022/08/20 01:52:40;;;;;;;16.35;10.55;;;;;;;16.78;98.57;94339.69;1658812;85;21199;-48
2022/08/20 01:55:08;;;;;;;24.85;12.05;;;;;;;16.73;98.52;94341.03;1662420;85;21144;-48
2022/08/20 01:57:36;;;;;;;28.05;12.55;;;;;;;16.65;98.71;94333.02;1648410;86;21711;-49
2022/08/20 02:00:09;;;;;;;19.60;11.48;;;;;;;16.58;99.06;94348.12;1626766;85;21257;-49
2022/08/20 02:02:37;;;;;;;25.08;11.15;;;;;;;16.54;99.39;94348.23;1654061;84;21043;-49
2022/08/20 02:05:06;;;;;;;20.57;10.75;;;;;;;16.53;99.77;94352.27;1652039;84;20990;-49
2022/08/20 02:07:34;;;;;;;18.77;12.40;;;;;;;16.51;100.00;94346.45;1643661;84;21029;-48
2022/08/20 02:10:08;;;;;;;21.75;11.90;;;;;;;16.48;100.00;94344.64;1656440;84;21176;-48
2022/08/20 02:12:38;;;;;;;14.43;11.45;;;;;;;16.42;100.00;94344.63;1639553;86;20999;-48
2022/08/20 02:15:09;;;;;;;20.17;11.63;;;;;;;16.41;100.00;94345.11;1637743;85;21477;-48
2022/08/20 02:17:38;;;;;;;23.12;11.30;;;;;;;16.42;100.00;94341.08;1663413;85;20986;-48
2022/08/20 02:20:13;;;;;;;18.32;12.35;;;;;;;16.47;100.00;94340.34;1661450;84;21572;-47
2022/08/20 02:22:53;;;;;;;19.45;11.35;;;;;;;16.49;100.00;94332.28;1647765;85;21036;-48
2022/08/20 02:25:23;;;;;;;12.90;8.90;;;;;;;16.50;100.00;94329.63;1657211;85;21197;-47
2022/08/20 02:27:51;;;;;;;15.95;9.83;;;;;;;16.49;100.00;94329.50;1648394;86;21248;-47
2022/08/20 02:30:32;;;;;;;8.95;8.05;;;;;;;16.46;100.00;94323.55;1643185;86;21106;-49
2022/08/20 02:33:01;;;;;;;12.20;8.08;;;;;;;16.42;100.00;94327.97;1644373;85;21106;-48
2022/08/20 02:35:29;;;;;;;17.15;9.73;;;;;;;16.39;100.00;94328.19;1650843;85;21052;-48
2022/08/20 02:37:57;;;;;;;17.37;10.68;;;;;;;16.33;100.00;94330.14;1630765;86;21211;-50
2022/08/20 02:40:26;;;;;;;15.75;8.78;;;;;;;16.28;100.00;94326.67;1656441;85;21082;-49
2022/08/20 02:42:54;;;;;;;10.95;9.43;;;;;;;16.27;100.00;94326.55;1638968;86;21003;-48
2022/08/20 02:45:22;;;;;;;13.95;10.75;;;;;;;16.31;100.00;94332.63;1673534;85;21259;-48
2022/08/20 02:47:52;;;;;;;16.17;10.85;;;;;;;16.37;100.00;94336.25;1682566;84;21043;-47
2022/08/20 02:50:21;;;;;;;11.25;9.78;;;;;;;16.40;100.00;94333.22;1670424;84;21243;-48
2022/08/20 02:52:49;;;;;;;9.83;8.88;;;;;;;16.45;100.00;94333.91;1678425;83;21159;-48
2022/08/20 02:55:17;;;;;;;11.90;8.45;;;;;;;16.53;100.00;94332.83;1684339;84;21138;-48
2022/08/20 02:57:45;;;;;;;11.45;9.53;;;;;;;16.56;100.00;94328.41;1678674;83;21123;-49
2022/08/20 03:00:19;;;;;;;14.63;10.55;;;;;;;16.53;100.00;94338.38;1644136;85;21139;-48
2022/08/20 03:02:47;;;;;;;10.72;9.15;;;;;;;16.48;100.00;94336.31;1677658;83;21872;-49
2022/08/20 03:05:17;;;;;;;10.90;8.90;;;;;;;16.46;100.00;94336.82;1675943;82;21033;-48
2022/08/20 03:07:52;;;;;;;10.38;9.23;;;;;;;16.48;100.00;94334.92;1677542;83;21112;-48
2022/08/20 03:10:25;;;;;;;12.90;9.30;;;;;;;16.47;100.00;94335.56;1680829;84;21178;-48
2022/08/20 03:12:53;;;;;;;11.15;10.08;;;;;;;16.42;100.00;94338.30;1647615;85;21088;-49
2022/08/20 03:15:20;;;;;;;12.33;9.75;;;;;;;16.37;100.00;94336.25;1674340;84;21903;-48
2022/08/20 03:17:50;;;;;;;14.53;10.10;;;;;;;16.37;100.00;94339.77;1679285;84;21026;-48
2022/08/20 03:20:18;;;;;;;12.78;9.83;;;;;;;16.42;100.00;94348.79;1675210;84;20974;-48
2022/08/20 03:22:48;;;;;;;13.20;10.70;;;;;;;16.47;100.00;94345.28;1644921;84;20967;-48
2022/08/20 03:25:16;;;;;;;12.58;9.90;;;;;;;16.50;100.00;94346.29;1672405;83;21194;-48
2022/08/20 03:27:45;;;;;;;13.05;9.33;;;;;;;16.53;100.00;94348.85;1674583;84;21145;-48
2022/08/20 03:30:14;;;;;;;16.97;8.78;;;;;;;16.53;100.00;94352.27;1678968;83;21575;-48
2022/08/20 03:32:42;;;;;;;9.73;7.75;;;;;;;16.51;100.00;94353.39;1674647;84;21041;-48
2022/08/20 03:35:12;;;;;;;10.98;8.20;;;;;;;16.51;100.00;94356.17;1678121;84;20964;-48
2022/08/20 03:37:40;;;;;;;16.07;10.13;;;;;;;16.53;100.00;94352.27;1678734;83;20976;-48
2022/08/20 03:40:11;;;;;;;16.25;10.80;;;;;;;16.59;100.00;94357.22;1682463;83;21250;-48
2022/08/20 03:42:40;;;;;;;10.65;9.28;;;;;;;16.60;100.00;94361.52;1680674;84;21599;-48
2022/08/20 03:45:09;;;;;;;10.95;8.63;;;;;;;16.60;99.84;94360.14;1630607;85;21533;-48
2022/08/20 03:47:38;;;;;;;18.10;10.30;;;;;;;16.58;99.23;94357.09;1658353;85;21534;-48
2022/08/20 03:50:07;;;;;;;14.80;9.68;;;;;;;16.56;99.07;94361.00;1677060;84;21452;-48
2022/08/20 03:52:35;;;;;;;10.75;9.65;;;;;;;16.54;99.55;94361.48;1679772;84;21227;-48
2022/08/20 03:55:06;;;;;;;12.45;9.18;;;;;;;16.51;99.67;94360.34;1681511;84;21013;-48
2022/08/20 03:57:35;;;;;;;9.45;7.97;;;;;;;16.43;99.60;94367.59;1676974;83;21100;-48
2022/08/20 04:00:05;;;;;;;10.70;8.55;;;;;;;16.39;100.00;94365.67;1654005;85;21083;-49
2022/08/20 04:02:35;;;;;;;13.48;10.15;;;;;;;16.42;100.00;94368.23;1675947;83;21016;-49
2022/08/20 04:05:04;;;;;;;13.75;10.28;;;;;;;16.48;100.00;94366.86;1679360;85;21253;-49
2022/08/20 04:07:33;;;;;;;14.90;9.83;;;;;;;16.50;100.00;94364.34;1680306;84;21528;-49
2022/08/20 04:10:02;;;;;;;14.05;9.38;;;;;;;16.52;100.00;94361.86;1676311;84;21246;-48
2022/08/20 04:12:30;;;;;;;13.98;8.50;;;;;;;16.50;99.81;94362.95;1652178;85;21107;-49
2022/08/20 04:14:59;;;;;;;12.37;9.00;;;;;;;16.52;100.00;94359.83;1653174;85;21145;-49
2022/08/20 04:17:27;;;;;;;13.40;9.33;;;;;;;16.60;100.00;94360.14;1657378;85;21142;-49
2022/08/20 04:19:55;;;;;;;12.60;10.30;;;;;;;16.71;100.00;94368.55;1663515;85;21095;-48
2022/08/20 04:22:23;;;;;;;18.85;11.03;;;;;;;16.79;99.80;94360.66;1650667;85;21056;-48
2022/08/20 04:24:51;;;;;;;15.13;12.88;;;;;;;16.78;99.13;94363.91;1669977;84;20986;-48
2022/08/20 04:27:20;;;;;;;13.78;10.60;;;;;;;16.79;98.93;94359.27;1674899;83;21485;-49
2022/08/20 04:29:47;;;;;;;15.95;11.18;;;;;;;16.85;99.03;94361.44;1675071;83;21131;-49
2022/08/20 04:32:16;;;;;;;16.50;12.13;;;;;;;16.92;98.49;94364.38;1674515;83;21083;-49
2022/08/20 04:34:43;;;;;;;15.93;11.22;;;;;;;16.94;97.91;94359.08;1682720;83;21110;-48
2022/08/20 04:37:11;;;;;;;11.15;9.70;;;;;;;16.89;97.28;94359.18;1682940;84;20978;-48
2022/08/20 04:39:39;;;;;;;17.00;9.53;;;;;;;16.83;97.37;94361.17;1656685;84;20965;-48
2022/08/20 04:42:08;;;;;;;12.28;8.45;;;;;;;16.80;97.37;94362.78;1676014;84;21158;-47
2022/08/20 04:44:38;;;;;;;12.07;10.05;;;;;;;16.77;97.56;94355.45;1676096;83;20973;-48
2022/08/20 04:47:06;;;;;;;17.02;10.28;;;;;;;16.76;97.92;94356.70;1685428;84;21091;-48
2022/08/20 04:49:37;;;;;;;16.80;12.23;;;;;;;16.82;98.26;94349.16;1671140;83;21147;-49
2022/08/20 04:52:05;;;;;;;20.80;12.00;;;;;;;16.85;97.78;94353.10;1657312;85;21032;-48
2022/08/20 04:54:34;;;;;;;18.35;10.93;;;;;;;16.84;97.77;94354.97;1681197;84;21473;-48
2022/08/20 04:57:03;;;;;;;13.22;11.60;;;;;;;16.90;98.15;94358.56;1680085;81;21055;-49
2022/08/20 04:59:32;;;;;;;16.60;11.05;;;;;;;16.94;98.13;94351.49;1647014;85;21019;-48
2022/08/20 05:02:01;;;;;;;13.08;11.38;;;;;;;17.03;97.87;94351.91;1667913;85;21204;-48
2022/08/20 05:04:29;;;;;;;14.78;11.57;;;;;;;17.03;97.42;94342.97;1662408;84;21099;-49
2022/08/20 05:06:58;;;;;;;15.05;11.25;;;;;;;17.01;97.17;94341.93;1654165;85;21812;-49
2022/08/20 05:09:25;;;;;;;14.85;11.10;;;;;;;17.02;97.58;94335.11;1637425;85;21017;-50
2022/08/20 05:11:52;;;;;;;15.40;11.65;;;;;;;17.09;97.67;94324.28;1644240;85;21061;-49
2022/08/20 05:14:20;;;;;;;16.87;11.50;;;;;;;17.16;97.72;94327.22;1650263;84;21024;-49
2022/08/20 05:16:49;;;;;;;11.97;10.78;;;;;;;17.27;97.56;94317.55;1655887;84;20969;-48
2022/08/20 05:19:17;;;;;;;11.50;10.30;;;;;;;17.36;97.24;94317.34;1615049;84;21172;-48
2022/08/20 05:21:46;;;;;;;16.50;9.88;;;;;;;17.46;96.80;94316.61;1621863;87;21027;-49
2022/08/20 05:24:15;;;;;;;12.35;10.75;;;;;;;17.61;95.87;94321.98;1678012;85;21098;-49
2022/08/20 05:26:43;;;;;;;12.00;10.43;;;;;;;17.69;95.27;94314.64;1657352;85;21603;-49
2022/08/20 05:29:11;;;;;;;12.78;10.60;;;;;;;17.80;94.61;94316.07;1656013;85;21069;-48
2022/08/20 05:31:40;;;;;;;13.50;10.72;;;;;;;17.86;94.05;94318.96;1656159;85;21276;-48
2022/08/20 05:34:11;;;;;;;14.40;11.12;;;;;;;17.93;93.77;94312.92;1679724;83;20965;-48
2022/08/20 05:36:42;;;;;;;11.88;9.95;;;;;;;18.00;93.67;94320.02;1676708;82;21476;-48
2022/08/20 05:39:09;;;;;;;13.32;9.60;;;;;;;18.05;93.18;94316.47;1635582;84;21054;-48
2022/08/20 05:41:38;;;;;;;11.53;10.28;;;;;;;18.08;92.92;94322.41;1635259;85;21069;-48
2022/08/20 05:44:12;;;;;;;14.45;12.43;;;;;;;18.08;92.96;94316.22;1649634;85;21258;-49
2022/08/20 05:46:42;;;;;;;19.70;12.10;;;;;;;18.04;92.79;94314.95;1661362;85;20949;-49
2022/08/20 05:49:12;;;;;;;17.02;11.28;;;;;;;18.06;93.13;94312.41;1625089;86;20990;-49
2022/08/20 05:51:40;;;;;;;16.73;11.30;;;;;;;18.09;92.75;94322.53;1669034;86;21227;-49
2022/08/20 05:54:09;;;;;;;17.30;11.10;;;;;;;18.11;92.81;94321.39;1667391;84;21575;-48
2022/08/20 05:56:38;;;;;;;22.93;12.23;;;;;;;18.18;92.51;94315.46;1669721;85;21916;-49
2022/08/20 05:59:06;;;;;;;16.27;10.70;;;;;;;18.26;92.10;94312.28;1653699;85;21427;-49
2022/08/20 06:01:35;;;;;;;15.93;10.50;;;;;;;18.37;91.76;94311.55;1667524;85;21130;-50
2022/08/20 06:06:57;;;;;;;18.00;10.28;;;;;;;18.63;90.76;94314.17;1627871;84;20972;-48
2022/08/20 06:09:25;;;;;;;13.88;11.12;;;;;;;18.78;89.78;94313.27;1643132;85;21199;-47
2022/08/20 06:11:54;;;;;;;16.87;11.97;;;;;;;18.86;89.23;94317.03;1641369;85;21106;-48
2022/08/20 06:14:22;;;;;;;15.53;10.60;;;;;;;18.97;88.75;94312.09;1651985;85;21094;-48
2022/08/20 06:16:50;;;;;;;23.67;10.93;;;;;;;19.08;88.12;94317.61;1610679;87;21004;-48
2022/08/20 06:19:18;;;;;;;12.73;9.55;;;;;;;19.18;87.81;94315.45;1594548;88;20981;-49
2022/08/20 06:21:46;;;;;;;20.88;11.78;;;;;;;19.31;87.26;94319.07;1625300;86;21214;-49
2022/08/20 06:24:14;;;;;;;22.93;13.68;;;;;;;19.39;87.00;94315.23;1659478;85;21019;-49
2022/08/20 06:26:42;;;;;;;19.82;12.65;;;;;;;19.48;86.63;94309.98;1673319;84;21123;-49
2022/08/20 06:29:10;;;;;;;14.90;11.20;;;;;;;19.59;86.55;94306.50;1681430;84;21197;-49
2022/08/20 06:31:39;;;;;;;18.07;10.18;;;;;;;19.69;86.07;94298.58;1671084;84;21067;-48
2022/08/20 06:34:06;;;;;;;15.95;11.65;;;;;;;19.80;85.26;94299.92;1677186;84;21282;-49
2022/08/20 06:36:35;;;;;;;22.50;13.45;;;;;;;19.89;84.91;94290.59;1649238;85;21080;-49
2022/08/20 06:39:03;;;;;;;20.20;13.78;;;;;;;20.01;84.59;94291.27;1674458;83;20977;-49
2022/08/20 06:41:34;;;;;;;21.57;13.90;;;;;;;20.08;84.18;94287.30;1648800;84;21482;-49
2022/08/20 06:44:03;;;;;;;18.25;11.83;;;;;;;20.16;83.77;94293.20;1642995;85;21044;-49
2022/08/20 06:46:32;;;;;;;15.80;11.97;;;;;;;20.27;83.02;94298.72;1661551;85;21855;-49
2022/08/20 06:49:00;;;;;;;20.45;12.05;;;;;;;20.42;82.28;94301.90;1627941;85;21046;-51
2022/08/20 06:51:29;;;;;;;21.37;12.93;;;;;;;20.54;81.62;94294.17;1658023;85;21007;-51
2022/08/20 06:53:57;;;;;;;18.80;12.28;;;;;;;20.65;81.29;94292.02;1645237;86;21024;-52
2022/08/20 06:56:25;;;;;;;22.65;12.53;;;;;;;20.78;81.00;94289.98;1625946;87;21483;-50
2022/08/20 06:58:53;;;;;;;16.30;10.82;;;;;;;20.93;80.58;94287.57;1619047;87;21265;-50
2022/08/20 07:01:21;;;;;;;16.45;10.85;;;;;;;21.09;79.85;94285.23;1649089;86;21443;-49
2022/08/20 07:03:49;;;;;;;18.50;11.35;;;;;;;21.20;79.05;94283.06;1628507;86;21206;-50
2022/08/20 07:06:19;;;;;;;19.95;11.12;;;;;;;21.35;79.19;94282.61;1660719;85;21552;-50
2022/08/20 07:08:46;;;;;;;20.75;10.65;;;;;;;21.49;79.09;94278.63;1660489;84;21086;-50
2022/08/20 07:11:15;;;;;;;18.73;10.53;;;;;;;21.66;78.41;94281.98;1632309;86;21222;-48
2022/08/20 07:13:44;;;;;;;22.70;10.38;;;;;;;21.80;77.48;94278.72;1657021;84;20955;-49
2022/08/20 07:16:12;;;;;;;14.35;9.58;;;;;;;21.98;76.29;94285.61;1670911;83;20985;-49
2022/08/20 07:18:41;;;;;;;13.35;9.95;;;;;;;22.09;74.87;94287.59;1667565;84;20977;-49
2022/08/20 07:21:10;;;;;;;13.08;10.13;;;;;;;22.17;74.45;94292.05;1676647;83;21223;-49
2022/08/20 07:23:40;;;;;;;19.17;9.75;;;;;;;22.27;73.83;94288.95;1658804;84;21292;-49
2022/08/20 07:26:08;;;;;;;32.75;21.42;;;;;;;22.40;73.10;94284.82;1648364;84;20992;-50
2022/08/20 07:28:35;;;;;;;13.88;11.53;;;;;;;22.50;72.24;94286.57;1641666;85;20985;-49
2022/08/20 07:33:50;;;;;;;14.03;10.00;;;;;;;22.61;71.55;94288.53;1607864;86;21039;-50
2022/08/20 07:36:19;;;;;;;13.50;9.43;;;;;;;22.69;71.10;94283.80;1682656;83;21272;-49
2022/08/20 07:38:49;;;;;;;17.07;9.93;;;;;;;22.77;70.75;94273.46;1683844;83;21021;-48
2022/08/20 07:41:17;;;;;;;11.20;10.10;;;;;;;22.88;70.58;94264.83;1689657;81;21023;-48
2022/08/20 07:43:46;;;;;;;21.60;10.30;;;;;;;22.98;70.73;94264.52;1688776;84;21212;-49
2022/08/20 07:46:15;;;;;;;23.73;10.40;;;;;;;23.10;70.52;94263.02;1682993;83;21111;-49
2022/08/20 07:48:45;;;;;;;11.22;8.85;;;;;;;23.24;70.60;94253.30;1635440;84;21288;-49
2022/08/20 07:51:15;;;;;;;19.87;9.85;;;;;;;23.39;71.20;94257.72;1665546;83;21187;-49
2022/08/20 07:53:43;;;;;;;14.13;8.50;;;;;;;23.54;70.56;94245.28;1672850;84;20984;-49
2022/08/20 07:56:14;;;;;;;13.00;9.40;;;;;;;23.71;71.07;94248.48;1674257;83;20981;-49
2022/08/20 07:58:48;;;;;;;17.82;9.63;;;;;;;23.84;70.52;94242.86;1652273;85;21044;-49
2022/08/20 08:01:19;;;;;;;16.05;9.08;;;;;;;23.94;70.12;94244.56;1685584;83;21233;-49
2022/08/20 08:03:47;;;;;;;13.13;8.78;;;;;;;24.05;69.85;94238.77;1674190;84;21441;-49
2022/08/20 08:06:15;;;;;;;12.33;9.20;;;;;;;24.15;69.15;94233.42;1683459;84;21020;-57
2022/08/20 08:08:43;;;;;;;19.70;10.50;;;;;;;24.25;68.98;94231.66;1646313;84;21128;-50
2022/08/20 08:11:12;;;;;;;13.15;9.33;;;;;;;24.37;68.61;94228.69;1660073;83;21029;-50
2022/08/20 08:13:41;;;;;;;11.28;8.95;;;;;;;24.51;68.65;94227.28;1665090;85;21393;-48
2022/08/20 08:16:09;;;;;;;16.82;8.98;;;;;;;24.62;68.28;94225.63;1666977;85;21033;-49
2022/08/20 08:18:42;;;;;;;15.03;9.75;;;;;;;24.72;68.32;94225.25;1679494;83;21079;-49
2022/08/20 08:21:11;;;;;;;;;;;;;;;24.85;67.48;94216.70;1687575;83;20971;-49
2022/08/20 08:23:43;;;;;;;14.55;7.90;;;;;;;25.01;67.00;94219.08;1688473;84;20231;-49
2022/08/20 08:26:15;;;;;;;12.03;9.07;;;;;;;25.17;65.73;94219.91;1682983;83;21336;-52
2022/08/20 08:28:43;;;;;;;14.38;8.03;;;;;;;25.32;65.44;94205.94;1659662;84;22332;-49
2022/08/20 08:31:11;;;;;;;9.50;6.45;;;;;;;25.49;64.56;94201.98;1658022;85;20994;-52
2022/08/20 08:33:39;;;;;;;15.65;6.95;;;;;;;25.62;62.47;94199.00;1653264;85;21013;-50
2022/08/20 08:36:10;;;;;;;10.43;6.50;;;;;;;25.74;61.08;94203.77;1678419;84;20988;-51
2022/08/20 08:38:41;;;;;;;14.10;7.10;;;;;;;25.86;59.87;94202.13;1678029;84;21578;-50
2022/08/20 08:41:34;;;;;;;6.95;6.20;;;;;;;25.98;59.61;94204.70;1652915;84;21103;-51
2022/08/20 08:44:06;;;;;;;10.95;6.47;;;;;;;26.11;60.03;94197.50;1669282;84;21453;-49
2022/08/20 08:46:42;;;;;;;9.45;6.53;;;;;;;26.25;58.92;94200.22;1675131;83;21628;-49
2022/08/20 08:49:16;;;;;;;13.22;6.50;;;;;;;26.34;57.78;94196.86;1679131;84;21071;-51
2022/08/20 08:51:51;;;;;;;11.75;6.05;;;;;;;26.43;56.75;94194.23;1682495;83;21068;-49
2022/08/20 08:54:21;;;;;;;7.87;5.72;;;;;;;26.57;56.89;94194.82;1670719;84;21028;-49
2022/08/20 08:56:49;;;;;;;14.87;6.12;;;;;;;26.70;56.34;94189.72;1671875;83;21087;-50
2022/08/20 08:59:18;;;;;;;9.58;6.70;;;;;;;26.80;55.84;94185.67;1668886;83;21017;-50
2022/08/20 09:01:49;;;;;;;8.45;5.85;;;;;;;26.90;55.69;94183.14;1672753;84;21031;-50
2022/08/20 09:04:17;;;;;;;13.98;6.45;;;;;;;27.01;55.63;94186.96;1637631;84;21231;-48
2022/08/20 09:06:46;;;;;;;7.50;5.83;;;;;;;27.13;55.60;94181.05;1647385;84;21006;-49
2022/08/20 09:09:27;;;;;;;11.40;5.58;;;;;;;27.25;55.85;94184.95;1682494;83;21182;-48
2022/08/20 09:11:58;;;;;;;11.47;6.27;;;;;;;27.38;55.75;94185.41;1666113;83;21029;-48
2022/08/20 09:14:27;;;;;;;13.18;8.58;;;;;;;27.49;55.32;94182.91;1668309;84;21005;-48
2022/08/20 09:16:56;;;;;;;9.33;7.30;;;;;;;27.55;54.46;94183.44;1677035;83;21252;-51
2022/08/20 09:19:24;;;;;;;8.65;7.22;;;;;;;27.59;55.55;94178.14;1649121;84;21077;-50
2022/08/20 09:21:53;;;;;;;10.03;6.85;;;;;;;27.68;54.97;94183.20;1657013;84;21073;-49
2022/08/20 09:24:20;;;;;;;11.50;6.10;;;;;;;27.78;54.65;94182.70;1675520;84;21029;-50
2022/08/20 09:26:48;;;;;;;9.58;6.05;;;;;;;27.82;54.55;94190.14;1674647;84;21024;-50
2022/08/20 09:29:17;;;;;;;7.95;6.05;;;;;;;27.79;54.14;94194.09;1666361;83;22057;-49
2022/08/20 09:31:44;;;;;;;12.70;6.25;;;;;;;27.71;54.07;94193.39;1652793;85;21016;-50
2022/08/20 09:34:13;;;;;;;16.95;6.95;;;;;;;27.58;54.08;94190.03;1680590;84;21102;-51
2022/08/20 09:36:41;;;;;;;10.10;6.70;;;;;;;27.43;54.15;94190.83;1652021;85;21556;-50
2022/08/20 09:39:08;;;;;;;11.93;6.92;;;;;;;27.35;54.68;94183.05;1639359;85;21224;-50
2022/08/20 09:41:37;;;;;;;10.95;6.17;;;;;;;27.42;55.22;94188.58;1677391;85;21133;-50
2022/08/20 09:44:06;;;;;;;8.30;6.10;;;;;;;27.60;55.04;94182.47;1684708;84;21087;-49
2022/08/20 09:46:33;;;;;;;9.83;6.47;;;;;;;27.81;53.56;94186.47;1683232;84;21090;-50
2022/08/20 09:49:01;;;;;;;12.10;6.37;;;;;;;27.92;53.75;94187.45;1668220;84;21585;-49
2022/08/20 09:51:29;;;;;;;7.50;6.25;;;;;;;27.98;53.82;94187.30;1679266;83;21098;-49
2022/08/20 09:53:58;;;;;;;10.65;5.97;;;;;;;28.09;53.42;94185.45;1676252;83;21145;-49
2022/08/20 09:56:27;;;;;;;10.88;6.17;;;;;;;28.26;52.96;94185.53;1657823;85;21032;-50
2022/08/20 09:58:55;;;;;;;10.95;6.45;;;;;;;28.38;52.89;94183.11;1680701;83;32547;-49
2022/08/20 10:01:23;;;;;;;9.73;6.37;;;;;;;28.37;52.49;94175.22;1669830;83;21076;-49
2022/08/20 10:03:51;;;;;;;11.93;6.72;;;;;;;28.29;52.72;94184.38;1679860;83;21107;-48
2022/08/20 10:06:19;;;;;;;10.50;6.92;;;;;;;28.18;52.83;94186.27;1673853;84;21890;-49
2022/08/20 10:08:48;;;;;;;9.43;6.42;;;;;;;28.06;53.33;94190.17;1682541;84;21114;-51
2022/08/20 10:11:16;;;;;;;9.98;6.33;;;;;;;27.91;54.10;94190.94;1659603;85;21135;-49
2022/08/20 10:13:45;;;;;;;14.35;6.85;;;;;;;28.07;54.98;94183.19;1670988;84;21172;-49
2022/08/20 10:16:12;;;;;;;10.80;6.72;;;;;;;28.35;54.10;94180.67;1658183;84;21203;-51
2022/08/20 10:18:41;;;;;;;8.23;5.83;;;;;;;28.74;53.98;94176.31;1677291;81;21257;-49
2022/08/20 10:21:10;;;;;;;7.25;5.70;;;;;;;29.19;53.19;94172.31;1680741;84;21150;-49
2022/08/20 10:23:40;;;;;;;7.55;5.72;;;;;;;29.64;52.61;94174.68;1669800;83;21096;-51
2022/08/20 10:26:11;;;;;;;9.93;6.40;;;;;;;30.02;50.32;94164.31;1633745;84;21291;-49
2022/08/20 10:28:39;;;;;;;8.70;5.53;;;;;;;30.32;48.82;94166.08;1665967;83;21425;-49
2022/08/20 10:31:08;;;;;;;11.55;6.25;;;;;;;30.64;47.41;94167.21;1654437;85;21181;-52
2022/08/20 10:33:37;;;;;;;17.82;5.97;;;;;;;30.93;47.06;94168.06;1661832;84;21077;-53
2022/08/20 10:36:10;;;;;;;12.73;6.10;;;;;;;31.12;46.42;94175.23;1671968;84;21655;-49
2022/08/20 10:38:37;;;;;;;12.70;5.83;;;;;;;31.41;46.92;94173.16;1664345;84;21076;-49
2022/08/20 10:41:06;;;;;;;10.58;6.53;;;;;;;31.80;46.12;94178.20;1663980;84;21091;-49
2022/08/20 10:43:34;;;;;;;9.83;5.83;;;;;;;32.13;45.52;94175.67;1672423;83;21100;-49
2022/08/20 10:46:02;;;;;;;9.98;6.12;;;;;;;32.47;44.15;94169.61;1647959;85;21111;-48
2022/08/20 10:48:30;;;;;;;12.80;6.30;;;;;;;32.84;43.87;94173.02;1655417;85;21006;-51
2022/08/20 10:50:59;;;;;;;9.90;5.60;;;;;;;32.74;43.36;94175.84;1658849;85;21547;-49
2022/08/20 10:53:27;;;;;;;8.35;4.22;;;;;;;32.45;43.23;94182.30;1679482;84;21096;-49
2022/08/20 10:55:56;;;;;;;12.40;5.35;;;;;;;32.37;43.91;94179.62;1672080;84;21151;-48
2022/08/20 10:58:24;;;;;;;10.43;6.45;;;;;;;32.44;43.68;94187.23;1677520;83;21134;-49
2022/08/20 11:00:52;;;;;;;9.00;5.50;;;;;;;32.78;44.20;94184.67;1675039;84;21033;-50
2022/08/20 11:03:20;;;;;;;7.83;4.90;;;;;;;33.27;43.57;94185.24;1681075;83;21020;-49
2022/08/20 11:05:48;;;;;;;9.90;5.40;;;;;;;33.72;42.42;94188.33;1678226;83;20976;-49
2022/08/20 11:08:17;;;;;;;15.40;5.58;;;;;;;34.01;42.26;94188.91;1678493;83;21552;-49
2022/08/20 11:10:45;;;;;;;11.80;5.00;;;;;;;34.21;42.10;94187.39;1658304;84;21081;-49
2022/08/20 11:13:13;;;;;;;10.88;4.95;;;;;;;34.42;41.57;94175.88;1677852;83;21084;-50
2022/08/20 11:15:42;;;;;;;14.07;5.40;;;;;;;34.61;41.26;94171.38;1633519;85;21100;-49
2022/08/20 11:18:11;;;;;;;10.10;5.12;;;;;;;34.86;40.46;94178.69;1661242;85;21035;-49
2022/08/20 11:20:40;;;;;;;6.85;4.70;;;;;;;35.26;39.47;94181.17;1635529;85;21156;-49
2022/08/20 11:23:09;;;;;;;11.65;4.95;;;;;;;35.61;38.84;94174.70;1637168;85;20979;-49
2022/08/20 11:25:38;;;;;;;9.75;5.15;;;;;;;35.92;38.50;94166.54;1665279;85;21234;-49
2022/08/20 11:28:06;;;;;;;8.23;4.45;;;;;;;36.14;38.48;94172.89;1639911;86;21215;-50
2022/08/20 11:30:35;;;;;;;12.63;4.90;;;;;;;36.32;38.13;94165.32;1650087;83;21075;-50
2022/08/20 11:33:03;;;;;;;7.33;5.00;;;;;;;36.51;37.55;94168.50;1642097;86;21142;-49
2022/08/20 11:35:33;;;;;;;7.05;3.95;;;;;;;36.73;36.98;94161.14;1641594;86;21070;-48
2022/08/20 11:38:01;;;;;;;6.67;4.37;;;;;;;36.86;36.26;94164.05;1648612;86;21580;-49
2022/08/20 11:40:30;;;;;;;9.40;4.83;;;;;;;36.78;36.60;94162.16;1669260;85;20969;-49
2022/08/20 11:42:58;;;;;;;7.20;5.50;;;;;;;36.88;36.16;94159.86;1662442;84;21072;-49